createdAt,value
2019-02-20T00:02:00.321Z,70.03
2019-02-20T00:04:30.931Z,74.33
2019-02-20T00:07:01.414Z,67.63
2019-02-20T00:09:31.858Z,66.93
2019-02-20T00:12:02.485Z,69.90
2019-02-20T00:14:32.928Z,67.53
2019-02-20T00:17:03.548Z,70.97
2019-02-20T00:19:34.077Z,69.63
2019-02-20T00:22:04.773Z,72.37
2019-02-20T00:24:35.253Z,72.20
2019-02-20T00:27:05.791Z,68.73
2019-02-20T00:29:36.341Z,68.13
2019-02-20T00:32:06.909Z,70.33
2019-02-20T00:34:37.577Z,71.17
2019-02-20T00:37:08.187Z,68.70
2019-02-20T00:39:38.915Z,65.90
2019-02-20T00:42:09.524Z,65.33
2019-02-20T00:44:50.016Z,67.53
2019-02-20T00:47:39.515Z,58.83
2019-02-20T00:50:10.524Z,68.73
2019-02-20T00:52:49.780Z,73.50
2019-02-20T00:55:17.338Z,59.90
2019-02-20T00:57:47.708Z,62.40
2019-02-20T01:00:18.384Z,62.20
2019-02-20T01:02:48.979Z,65.63
2019-02-20T01:05:20.707Z,67.87
2019-02-20T01:07:51.501Z,62.23
2019-02-20T01:10:22.056Z,66.97
2019-02-20T01:12:52.605Z,65.50
2019-02-20T01:15:23.135Z,68.63
2019-02-20T01:17:53.592Z,61.97
2019-02-20T01:20:24.540Z,63.40
2019-02-20T01:22:59.912Z,55.27
2019-02-20T01:25:28.370Z,60.27
2019-02-20T01:27:58.877Z,60.43
2019-02-20T01:30:29.636Z,68.00
2019-02-20T01:33:00.110Z,66.30
2019-02-20T01:35:30.760Z,60.80
2019-02-20T01:38:01.318Z,62.50
2019-02-20T01:40:31.803Z,56.53
2019-02-20T01:43:02.474Z,55.60
2019-02-20T01:45:33.323Z,56.27
2019-02-20T01:48:04.874Z,60.73
2019-02-20T01:50:35.468Z,59.53
2019-02-20T01:53:10.472Z,60.77
2019-02-20T01:55:38.346Z,57.17
2019-02-20T01:58:08.797Z,57.77
2019-02-20T02:00:39.518Z,59.40
2019-02-20T02:03:10.104Z,58.23
2019-02-20T02:05:40.726Z,61.30
2019-02-20T02:08:11.255Z,56.77
2019-02-20T02:10:41.977Z,56.60
2019-02-20T02:13:12.478Z,61.57
2019-02-20T02:15:43.053Z,58.70
2019-02-20T02:18:13.670Z,52.20
2019-02-20T02:20:44.302Z,59.23
2019-02-20T02:23:19.851Z,59.17
2019-02-20T02:25:47.140Z,55.47
2019-02-20T02:28:17.619Z,56.13
2019-02-20T02:30:48.181Z,59.93
2019-02-20T02:33:18.833Z,55.17
2019-02-20T02:35:49.507Z,62.93
2019-02-20T02:38:20.984Z,55.50
2019-02-20T02:40:51.611Z,57.57
2019-02-20T02:43:21.978Z,54.03
2019-02-20T02:45:52.370Z,54.57
2019-02-20T02:48:22.896Z,57.20
2019-02-20T02:50:53.490Z,55.10
2019-02-20T02:53:30.617Z,55.27
2019-02-20T02:55:56.214Z,57.50
2019-02-20T02:58:26.952Z,52.57
2019-02-20T03:00:57.406Z,54.43
2019-02-20T03:03:27.905Z,53.20
2019-02-20T03:05:58.401Z,58.57
2019-02-20T03:08:29.778Z,56.20
2019-02-20T03:11:00.307Z,53.13
2019-02-20T03:13:30.799Z,54.20
2019-02-20T03:16:01.396Z,52.73
2019-02-20T03:18:32.862Z,55.67
2019-02-20T03:21:03.425Z,55.93
2019-02-20T03:23:39.982Z,51.93
2019-02-20T03:26:06.113Z,52.87
2019-02-20T03:28:36.685Z,52.70
2019-02-20T03:31:07.313Z,55.67
2019-02-20T03:33:37.844Z,49.03
2019-02-20T03:36:08.464Z,55.73
2019-02-20T03:38:38.976Z,54.50
2019-02-20T03:41:09.633Z,49.50
2019-02-20T03:43:40.572Z,52.67
2019-02-20T03:46:11.105Z,47.47
2019-02-20T03:48:42.037Z,41.93
2019-02-20T03:51:12.462Z,42.80
2019-02-20T03:53:51.706Z,40.23
2019-02-20T03:56:16.574Z,44.27
2019-02-20T03:58:47.189Z,43.53
2019-02-20T04:01:17.767Z,46.57
2019-02-20T04:03:48.326Z,39.77
2019-02-20T04:06:18.878Z,43.87
2019-02-20T04:08:49.445Z,41.50
2019-02-20T04:11:19.981Z,41.47
2019-02-20T04:13:50.556Z,37.17
2019-02-20T04:16:21.352Z,34.80
2019-02-20T04:18:51.905Z,31.73
2019-02-20T04:21:22.406Z,35.17
2019-02-20T04:24:02.055Z,34.77
2019-02-20T04:26:25.129Z,38.17
2019-02-20T04:28:55.743Z,34.97
2019-02-20T04:31:26.159Z,31.60
2019-02-20T04:33:56.774Z,32.57
2019-02-20T04:36:27.624Z,32.83
2019-02-20T04:38:58.390Z,29.93
2019-02-20T04:41:28.821Z,23.97
2019-02-20T04:43:59.386Z,26.23
2019-02-20T04:46:29.942Z,27.47
2019-02-20T04:49:00.561Z,25.13
2019-02-20T04:51:31.202Z,22.93
2019-02-20T04:54:01.624Z,22.70
2019-02-20T04:56:32.249Z,29.03
2019-02-20T04:59:03.335Z,21.43
2019-02-20T05:01:33.748Z,16.60
2019-02-20T05:04:04.198Z,18.37
2019-02-20T05:06:34.641Z,16.83
2019-02-20T05:09:06.015Z,21.97
2019-02-20T05:11:37.763Z,17.30
2019-02-20T05:14:08.213Z,17.50
2019-02-20T05:16:38.725Z,17.73
2019-02-20T05:19:09.269Z,16.77
2019-02-20T05:21:39.732Z,17.83
2019-02-20T05:24:10.329Z,14.90
2019-02-20T05:26:40.798Z,18.47
2019-02-20T05:29:11.173Z,16.80
2019-02-20T05:31:41.537Z,16.57
2019-02-20T05:34:12.116Z,15.27
2019-02-20T05:36:43.194Z,14.30
2019-02-20T05:39:13.951Z,16.40
2019-02-20T05:41:44.362Z,17.90
2019-02-20T05:44:14.822Z,16.67
2019-02-20T05:46:45.264Z,17.20
2019-02-20T05:49:15.723Z,18.43
2019-02-20T05:51:46.251Z,16.87
2019-02-20T05:54:16.856Z,16.53
2019-02-20T05:56:47.382Z,16.93
2019-02-20T05:59:18.155Z,14.93
2019-02-20T06:01:48.767Z,17.87
2019-02-20T06:04:19.459Z,14.27
2019-02-20T06:06:50.014Z,21.93
2019-02-20T06:09:20.567Z,19.47
2019-02-20T06:11:51.299Z,14.10
2019-02-20T06:14:21.885Z,20.03
2019-02-20T06:16:53.276Z,14.03
2019-02-20T06:19:23.797Z,16.37
2019-02-20T06:21:54.251Z,14.47
2019-02-20T06:24:24.758Z,14.90
2019-02-20T06:26:55.503Z,15.23
2019-02-20T06:29:26.138Z,19.37
2019-02-20T06:31:56.760Z,20.07
2019-02-20T06:34:27.501Z,24.07
2019-02-20T06:36:58.005Z,16.13
2019-02-20T06:39:28.600Z,13.87
2019-02-20T06:41:59.203Z,13.93
2019-02-20T06:44:29.786Z,12.63
2019-02-20T06:47:00.437Z,13.83
2019-02-20T06:49:32.064Z,13.13
2019-02-20T06:52:02.544Z,14.40
2019-02-20T06:54:33.047Z,15.40
2019-02-20T06:57:03.924Z,14.70
2019-02-20T06:59:34.456Z,14.73
2019-02-20T07:02:05.204Z,13.50
2019-02-20T07:04:35.845Z,16.23
2019-02-20T07:07:45.134Z,17.40
2019-02-20T07:10:47.686Z,16.23
2019-02-20T07:13:31.900Z,18.33
2019-02-20T07:16:36.574Z,15.50
2019-02-20T07:19:34.063Z,13.83
2019-02-20T07:22:28.245Z,15.07
2019-02-20T07:25:37.238Z,15.23
2019-02-20T07:28:46.088Z,15.17
2019-02-20T07:31:16.721Z,18.23
2019-02-20T07:33:47.431Z,16.87
2019-02-20T07:36:18.177Z,15.87
2019-02-20T07:38:48.799Z,16.60
2019-02-20T07:41:20.527Z,13.43
2019-02-20T07:43:51.164Z,11.00
2019-02-20T07:46:21.707Z,16.87
2019-02-20T07:48:52.299Z,15.13
2019-02-20T07:51:22.832Z,14.77
2019-02-20T07:53:53.370Z,15.10
2019-02-20T07:56:25.138Z,13.17
2019-02-20T07:58:55.685Z,11.97
2019-02-20T08:01:26.283Z,13.33
2019-02-20T08:03:56.868Z,11.17
2019-02-20T08:06:27.495Z,11.40
2019-02-20T08:08:58.123Z,14.97
2019-02-20T08:11:28.977Z,14.73
2019-02-20T08:13:59.447Z,12.53
2019-02-20T08:16:30.034Z,10.20
2019-02-20T08:19:00.813Z,14.30
2019-02-20T08:21:32.409Z,11.90
2019-02-20T08:24:03.045Z,13.33
2019-02-20T08:26:33.391Z,14.63
2019-02-20T08:29:04.101Z,16.67
2019-02-20T08:31:34.956Z,15.03
2019-02-20T08:34:05.665Z,14.60
2019-02-20T08:36:36.417Z,11.60
2019-02-20T08:39:07.220Z,13.37
2019-02-20T08:41:38.302Z,15.67
2019-02-20T08:44:08.945Z,11.57
2019-02-20T08:46:39.607Z,11.90
2019-02-20T08:49:10.409Z,15.33
2019-02-20T08:51:41.063Z,11.37
2019-02-20T08:54:11.675Z,10.27
2019-02-20T08:56:42.195Z,10.83
2019-02-20T08:59:12.885Z,8.00
2019-02-20T09:01:43.541Z,5.77
2019-02-20T09:04:14.290Z,8.37
2019-02-20T09:06:44.864Z,7.83
2019-02-20T09:09:15.534Z,7.63
2019-02-20T09:11:46.191Z,6.53
2019-02-20T09:14:17.080Z,8.87
2019-02-20T09:16:47.718Z,9.67
2019-02-20T09:19:18.272Z,13.40
2019-02-20T09:21:48.899Z,12.77
2019-02-20T09:24:19.525Z,10.30
2019-02-20T09:26:50.180Z,12.07
2019-02-20T09:29:20.804Z,13.10
2019-02-20T09:31:51.479Z,11.90
2019-02-20T09:34:22.049Z,13.30
2019-02-20T09:36:52.668Z,13.70
2019-02-20T09:39:33.369Z,10.63
2019-02-20T09:42:08.458Z,11.00
2019-02-20T09:44:43.606Z,10.40
2019-02-20T09:47:15.254Z,9.77
2019-02-20T09:49:45.802Z,9.73
2019-02-20T09:52:16.571Z,9.83
2019-02-20T09:54:47.137Z,9.30
2019-02-20T09:57:17.647Z,11.77
2019-02-20T09:59:48.213Z,6.70
2019-02-20T10:02:18.845Z,8.47
2019-02-20T10:04:49.505Z,8.73
2019-02-20T10:07:20.104Z,8.23
2019-02-20T10:09:50.703Z,7.17
2019-02-20T10:12:21.282Z,9.60
2019-02-20T10:14:51.924Z,6.20
2019-02-20T10:17:22.425Z,7.03
2019-02-20T10:19:52.971Z,11.93
2019-02-20T10:22:23.599Z,13.47
2019-02-20T10:24:54.097Z,10.73
2019-02-20T10:27:24.666Z,14.73
2019-02-20T10:29:55.076Z,10.97
2019-02-20T10:32:25.711Z,15.03
2019-02-20T10:34:56.182Z,14.80
2019-02-20T10:37:26.674Z,13.90
2019-02-20T10:39:57.297Z,13.80
2019-02-20T10:42:28.049Z,14.10
2019-02-20T10:44:58.566Z,12.47
2019-02-20T10:47:29.094Z,12.10
2019-02-20T10:49:59.730Z,15.63
2019-02-20T10:52:30.338Z,15.17
2019-02-20T10:55:00.857Z,15.53
2019-02-20T10:57:31.589Z,16.03
2019-02-20T11:00:02.359Z,13.57
2019-02-20T11:02:34.830Z,14.63
2019-02-20T11:05:05.542Z,14.90
2019-02-20T11:07:36.222Z,14.67
2019-02-20T11:10:07.305Z,13.37
2019-02-20T11:12:37.992Z,13.87
2019-02-20T11:15:08.817Z,9.03
2019-02-20T11:17:39.656Z,19.53
2019-02-20T11:20:10.498Z,10.27
2019-02-20T11:22:41.008Z,11.80
2019-02-20T11:25:11.673Z,19.03
2019-02-20T11:27:42.272Z,14.23
2019-02-20T11:30:15.747Z,9.20
2019-02-20T11:32:46.325Z,12.40
2019-02-20T11:35:16.834Z,8.10
2019-02-20T11:37:47.465Z,10.70
2019-02-20T11:40:18.021Z,11.00
2019-02-20T11:42:48.460Z,9.37
2019-02-20T11:45:19.143Z,10.40
2019-02-20T11:47:49.673Z,13.43
2019-02-20T11:50:20.313Z,10.00
2019-02-20T11:52:51.174Z,13.27
2019-02-20T11:55:21.899Z,8.33
2019-02-20T11:58:00.502Z,7.40
2019-02-20T12:00:26.834Z,7.07
2019-02-20T12:02:57.540Z,12.03
2019-02-20T12:05:28.189Z,10.40
2019-02-20T12:07:58.866Z,8.90
2019-02-20T12:10:29.482Z,8.70
2019-02-20T12:13:00.288Z,10.70
2019-02-20T12:15:30.967Z,12.90
2019-02-20T12:18:01.593Z,7.07
2019-02-20T12:20:32.389Z,6.33
2019-02-20T12:23:03.107Z,7.93
2019-02-20T12:25:33.737Z,7.23
2019-02-20T12:28:04.427Z,7.00
2019-02-20T12:30:35.681Z,6.73
2019-02-20T12:33:06.396Z,9.33
2019-02-20T12:35:36.841Z,4.70
2019-02-20T12:38:07.487Z,6.13
2019-02-20T12:40:37.950Z,4.50
2019-02-20T12:43:08.476Z,7.93
2019-02-20T12:45:39.054Z,5.20
2019-02-20T12:48:09.554Z,6.07
2019-02-20T12:50:40.066Z,4.90
2019-02-20T12:53:10.696Z,10.53
2019-02-20T12:55:41.196Z,3.77
2019-02-20T12:58:11.846Z,8.47
2019-02-20T13:00:43.743Z,5.67
2019-02-20T13:03:14.582Z,5.50
2019-02-20T13:05:45.104Z,6.13
2019-02-20T13:08:15.697Z,6.30
2019-02-20T13:10:46.453Z,6.93
2019-02-20T13:13:17.085Z,4.53
2019-02-20T13:15:47.937Z,6.63
2019-02-20T13:18:19.776Z,6.07
2019-02-20T13:20:50.637Z,4.83
2019-02-20T13:23:21.206Z,6.27
2019-02-20T13:25:51.723Z,5.07
2019-02-20T13:28:22.411Z,5.47
2019-02-20T13:30:53.047Z,7.30
2019-02-20T13:33:23.669Z,5.80
2019-02-20T13:35:54.332Z,7.60
2019-02-20T13:38:24.851Z,6.07
2019-02-20T13:40:55.415Z,4.50
2019-02-20T13:43:26.412Z,8.73
2019-02-20T13:45:57.552Z,6.67
2019-02-20T13:48:28.445Z,7.07
2019-02-20T13:50:59.146Z,7.23
2019-02-20T13:53:29.871Z,5.30
2019-02-20T13:56:00.488Z,3.73
2019-02-20T13:58:31.517Z,7.27
2019-02-20T14:01:02.118Z,10.53
2019-02-20T14:03:32.712Z,7.60
2019-02-20T14:06:03.390Z,5.03
2019-02-20T14:08:34.272Z,5.30
2019-02-20T14:11:05.054Z,7.93
2019-02-20T14:13:35.790Z,5.47
2019-02-20T14:16:06.372Z,6.37
2019-02-20T14:18:37.293Z,6.67
2019-02-20T14:21:08.140Z,6.80
2019-02-20T14:23:38.751Z,6.40
2019-02-20T14:26:10.016Z,8.27
2019-02-20T14:28:40.571Z,9.00
2019-02-20T14:31:11.257Z,11.37
2019-02-20T14:33:41.992Z,9.97
2019-02-20T14:36:12.685Z,9.40
2019-02-20T14:38:43.322Z,5.47
2019-02-20T14:41:16.366Z,7.30
2019-02-20T14:43:47.282Z,6.13
2019-02-20T14:46:18.148Z,7.47
2019-02-20T14:48:48.762Z,6.27
2019-02-20T14:51:19.509Z,7.90
2019-02-20T14:53:50.734Z,6.87
2019-02-20T14:56:22.574Z,5.77
2019-02-20T14:58:53.244Z,4.53
2019-02-20T15:01:25.298Z,6.03
2019-02-20T15:03:56.243Z,7.97
2019-02-20T15:06:27.381Z,5.67
2019-02-20T15:08:58.170Z,9.87
2019-02-20T15:11:28.933Z,6.83
2019-02-20T15:13:59.814Z,6.50
2019-02-20T15:16:30.629Z,9.67
2019-02-20T15:19:01.535Z,7.70
2019-02-20T15:21:32.595Z,5.50
2019-02-20T15:24:03.556Z,6.60
2019-02-20T15:26:34.470Z,7.67
2019-02-20T15:29:05.252Z,7.73
2019-02-20T15:31:36.288Z,7.07
2019-02-20T15:34:07.346Z,5.67
2019-02-20T15:36:40.292Z,8.23
2019-02-20T15:39:11.031Z,7.97
2019-02-20T15:41:42.146Z,4.30
2019-02-20T15:44:12.916Z,4.40
2019-02-20T15:46:45.821Z,8.47
2019-02-20T15:49:19.671Z,4.40
2019-02-20T15:51:54.393Z,6.43
2019-02-20T15:54:25.032Z,6.37
2019-02-20T15:56:55.882Z,8.43
2019-02-20T15:59:26.707Z,8.13
2019-02-20T16:01:58.671Z,6.03
2019-02-20T16:04:29.336Z,7.67
2019-02-20T16:07:03.247Z,10.17
2019-02-20T16:09:36.666Z,13.90
2019-02-20T16:12:09.598Z,7.70
2019-02-20T16:14:42.147Z,8.60
2019-02-20T16:17:13.198Z,9.43
2019-02-20T16:19:44.155Z,7.83
2019-02-20T16:22:14.975Z,7.73
2019-02-20T16:24:45.634Z,11.37
2019-02-20T16:27:21.536Z,6.13
2019-02-20T16:29:54.319Z,8.20
2019-02-20T16:32:26.209Z,8.27
2019-02-20T16:34:58.684Z,8.43
2019-02-20T16:37:32.944Z,11.77
2019-02-20T16:40:08.776Z,9.43
2019-02-20T16:42:41.762Z,11.33
2019-02-20T16:45:21.516Z,8.77
2019-02-20T16:47:53.009Z,8.90
2019-02-20T16:50:25.383Z,9.97
2019-02-20T16:52:57.597Z,6.27
2019-02-20T16:55:30.749Z,11.70
2019-02-20T16:58:07.522Z,10.37
2019-02-20T17:00:38.962Z,7.83
2019-02-20T17:03:12.544Z,8.57
2019-02-20T17:05:43.234Z,8.67
2019-02-20T17:08:15.148Z,9.47
2019-02-20T17:10:47.160Z,6.37
2019-02-20T17:13:20.366Z,6.23
2019-02-20T17:15:52.194Z,8.13
2019-02-20T17:18:24.172Z,9.93
2019-02-20T17:20:54.903Z,7.13
2019-02-20T17:23:26.455Z,11.53
2019-02-20T17:26:00.634Z,7.60
2019-02-20T17:28:32.514Z,8.23
2019-02-20T17:31:03.418Z,8.97
2019-02-20T17:33:34.323Z,8.53
2019-02-20T17:36:06.501Z,9.83
2019-02-20T17:38:39.079Z,10.80
2019-02-20T17:41:11.734Z,13.03
2019-02-20T17:43:43.894Z,10.23
2019-02-20T17:46:15.174Z,14.43
2019-02-20T17:48:47.560Z,14.80
2019-02-20T17:51:18.526Z,14.30
2019-02-20T17:53:52.615Z,10.20
2019-02-20T17:56:23.781Z,13.87
2019-02-20T17:58:58.183Z,12.63
2019-02-20T18:01:31.895Z,16.10
2019-02-20T18:04:05.864Z,11.57
2019-02-20T18:06:37.916Z,8.77
2019-02-20T18:09:17.294Z,10.43
2019-02-20T18:11:49.873Z,14.17
2019-02-20T18:14:26.617Z,12.67
2019-02-20T18:16:59.479Z,6.03
2019-02-20T18:19:34.785Z,8.60
2019-02-20T18:22:07.070Z,9.17
2019-02-20T18:24:38.986Z,11.33
2019-02-20T18:27:09.804Z,12.90
2019-02-20T18:29:41.755Z,8.57
2019-02-20T18:32:12.752Z,7.90
2019-02-20T18:34:45.675Z,11.60
2019-02-20T18:37:22.342Z,9.70
2019-02-20T18:40:00.690Z,11.57
2019-02-20T18:42:33.203Z,7.00
2019-02-20T18:45:10.416Z,6.03
2019-02-20T18:47:42.093Z,11.33
2019-02-20T18:50:17.956Z,9.53
2019-02-20T18:52:51.942Z,9.00
2019-02-20T18:55:45.054Z,10.43
2019-02-20T18:58:18.965Z,7.67
2019-02-20T19:00:54.004Z,9.37
2019-02-20T19:03:27.455Z,9.07
2019-02-20T19:05:58.674Z,9.17
2019-02-20T19:08:41.955Z,8.73
2019-02-20T19:11:18.852Z,10.83
2019-02-20T19:14:12.310Z,10.40
2019-02-20T19:17:15.596Z,10.20
2019-02-20T19:20:12.585Z,9.07
2019-02-20T19:23:10.733Z,19.43
2019-02-20T19:26:23.118Z,15.80
2019-02-20T19:29:23.086Z,12.80
2019-02-20T19:32:24.745Z,13.87
2019-02-20T19:35:18.881Z,15.10
2019-02-20T19:38:15.538Z,16.10
2019-02-20T19:41:24.735Z,16.70
2019-02-20T19:44:17.220Z,16.83
2019-02-20T19:47:25.191Z,14.57
2019-02-20T19:50:35.983Z,14.73
2019-02-20T19:53:29.410Z,17.83
2019-02-20T19:56:27.024Z,12.77
2019-02-20T19:59:22.496Z,14.10
2019-02-20T20:02:33.069Z,16.77
2019-02-20T20:05:42.316Z,16.33
2019-02-20T20:08:43.902Z,15.80
2019-02-20T20:11:49.741Z,15.33
2019-02-20T20:14:42.119Z,16.37
2019-02-20T20:17:48.145Z,18.33
2019-02-20T20:20:56.405Z,15.73
2019-02-20T20:24:05.923Z,15.13
2019-02-20T20:27:15.028Z,17.73
2019-02-20T20:30:11.912Z,15.10
2019-02-20T20:33:17.813Z,20.23
2019-02-20T20:36:13.275Z,16.30
2019-02-20T20:39:14.166Z,21.27
2019-02-20T20:42:10.856Z,18.80
2019-02-20T20:45:08.135Z,17.77
2019-02-20T20:48:11.206Z,16.80
2019-02-20T20:51:10.665Z,11.23
2019-02-20T20:54:19.823Z,17.50
2019-02-20T20:57:18.594Z,7.37
2019-02-20T21:00:29.151Z,13.73
2019-02-20T21:03:06.396Z,12.03
2019-02-20T21:06:03.102Z,10.30
2019-02-20T21:09:15.407Z,9.67
2019-02-20T21:11:59.008Z,11.77
2019-02-20T21:15:08.374Z,15.27
2019-02-20T21:18:04.292Z,9.20
2019-02-20T21:21:14.745Z,9.90
2019-02-20T21:24:18.001Z,12.03
2019-02-20T21:27:27.296Z,11.13
2019-02-20T21:30:36.430Z,9.20
2019-02-20T21:33:47.543Z,11.70
2019-02-20T21:36:34.159Z,12.77
2019-02-20T21:39:33.017Z,13.73
2019-02-20T21:42:43.869Z,8.27
2019-02-20T21:45:39.512Z,9.80
2019-02-20T21:48:40.210Z,9.70
2019-02-20T21:51:24.981Z,10.80
2019-02-20T21:54:10.502Z,9.27
2019-02-20T21:57:19.536Z,17.83
2019-02-20T22:00:13.035Z,9.10
2019-02-20T22:02:58.674Z,8.27
2019-02-20T22:06:07.783Z,11.97
2019-02-20T22:09:07.712Z,9.83
2019-02-20T22:12:18.240Z,14.33
2019-02-20T22:14:59.791Z,11.37
2019-02-20T22:17:43.300Z,12.83
2019-02-20T22:20:52.337Z,11.47
2019-02-20T22:24:01.433Z,12.83
2019-02-20T22:26:41.208Z,10.60
2019-02-20T22:29:36.558Z,8.57
2019-02-20T22:32:33.065Z,10.87
2019-02-20T22:35:31.673Z,9.53
2019-02-20T22:38:27.776Z,12.67
2019-02-20T22:41:21.679Z,11.37
2019-02-20T22:44:30.592Z,9.80
2019-02-20T22:47:39.474Z,7.77
2019-02-20T22:50:48.454Z,10.17
2019-02-20T22:53:47.471Z,8.53
2019-02-20T22:56:42.142Z,10.13
2019-02-20T22:59:46.454Z,12.03
2019-02-20T23:02:55.376Z,10.57
2019-02-20T23:06:05.422Z,11.27
2019-02-20T23:08:46.932Z,9.20
2019-02-20T23:11:43.944Z,9.37
2019-02-20T23:14:52.996Z,7.90
2019-02-20T23:17:23.843Z,19.67
2019-02-20T23:19:55.713Z,14.30
2019-02-20T23:22:26.271Z,20.87
2019-02-20T23:24:56.862Z,18.77
2019-02-20T23:27:27.342Z,16.53
2019-02-20T23:29:58.015Z,16.03
2019-02-20T23:32:28.776Z,20.53
2019-02-20T23:34:59.495Z,15.90
2019-02-20T23:37:30.124Z,18.23
2019-02-20T23:40:00.744Z,13.43
2019-02-20T23:42:31.346Z,17.60
2019-02-20T23:45:01.824Z,14.87
2019-02-20T23:47:32.730Z,16.20
2019-02-20T23:50:03.401Z,22.53
2019-02-20T23:52:34.046Z,18.60
2019-02-20T23:55:05.225Z,17.83
2019-02-20T23:57:35.883Z,17.67
